Time;durP1;ratioP1;P1;durP2;ratioP2;P2;SDS_P1;SDS_P2;PMS_P1;PMS_P2;Temp;Humidity;BMP_temperature;BMP_pressure;BME280_temperature;BME280_humidity;BME280_pressure;Samples;Min_cycle;Max_cycle;Signal;HPM_P1;HPM_P2
2024/02/22 00:01:20;;;;;;;3.60;3.00;;;7.70;99.90;;;;;;5075935;28;20748;-61
2024/02/22 00:03:47;;;;;;;4.67;2.97;;;7.70;99.90;;;;;;5075730;28;20874;-60
2024/02/22 00:06:15;;;;;;;3.40;2.77;;;7.70;99.90;;;;;;5075851;28;20772;-60
2024/02/22 00:08:43;;;;;;;3.67;2.77;;;7.70;99.90;;;;;;5075241;28;20510;-61
2024/02/22 00:11:13;;;;;;;3.60;2.87;;;7.80;99.90;;;;;;5075566;28;20756;-61
2024/02/22 00:13:41;;;;;;;3.40;2.47;;;7.70;99.90;;;;;;5075650;28;20905;-60
2024/02/22 00:16:09;;;;;;;4.03;2.70;;;7.70;99.90;;;;;;5075558;28;20563;-61
2024/02/22 00:18:38;;;;;;;3.07;2.40;;;7.70;99.90;;;;;;5075330;28;20464;-60
2024/02/22 00:21:06;;;;;;;3.67;2.40;;;7.80;99.90;;;;;;5074811;28;20508;-61
2024/02/22 00:23:33;;;;;;;3.20;2.40;;;7.80;99.90;;;;;;5075391;28;20540;-61
2024/02/22 00:26:01;;;;;;;2.97;2.20;;;7.80;99.90;;;;;;5075039;28;20541;-61
2024/02/22 00:28:28;;;;;;;3.63;2.50;;;7.80;99.90;;;;;;5075316;28;20890;-60
2024/02/22 00:30:55;;;;;;;4.57;2.53;;;7.80;99.90;;;;;;5075448;28;20525;-60
2024/02/22 00:33:23;;;;;;;3.00;2.60;;;7.90;99.90;;;;;;5075112;28;20544;-60
2024/02/22 00:35:51;;;;;;;4.10;2.73;;;7.80;99.90;;;;;;5075130;28;20454;-61
2024/02/22 00:38:18;;;;;;;3.47;2.70;;;7.90;99.90;;;;;;5074551;28;20493;-60
2024/02/22 00:40:46;;;;;;;5.30;2.57;;;7.90;99.90;;;;;;5075150;28;20485;-60
2024/02/22 00:43:14;;;;;;;4.10;2.50;;;7.90;99.90;;;;;;5075136;28;20484;-60
2024/02/22 00:45:41;;;;;;;2.70;2.30;;;7.90;99.90;;;;;;5074930;28;21043;-61
2024/02/22 00:48:08;;;;;;;3.53;2.80;;;7.90;99.90;;;;;;5075334;28;20461;-60
2024/02/22 00:50:36;;;;;;;4.23;2.40;;;7.90;99.90;;;;;;5074583;28;20997;-60
2024/02/22 00:53:05;;;;;;;3.17;2.67;;;7.90;99.90;;;;;;5074161;28;20544;-61
2024/02/22 00:55:32;;;;;;;3.10;2.70;;;7.90;99.90;;;;;;5074499;28;20456;-60
2024/02/22 00:57:59;;;;;;;3.87;2.80;;;7.90;99.90;;;;;;5060771;28;20561;-60
2024/02/22 01:00:27;;;;;;;5.20;2.80;;;7.90;99.90;;;;;;5054609;28;20553;-61
2024/02/22 01:02:54;;;;;;;3.57;2.73;;;7.90;99.90;;;;;;5054506;28;20458;-60
2024/02/22 01:05:21;;;;;;;3.10;2.53;;;8.00;99.90;;;;;;5055001;27;20592;-61
2024/02/22 01:07:49;;;;;;;4.10;2.87;;;8.00;99.90;;;;;;5054817;28;20458;-61
2024/02/22 01:10:17;;;;;;;4.00;3.07;;;8.00;99.90;;;;;;5054824;28;20562;-61
2024/02/22 01:12:46;;;;;;;3.10;2.60;;;8.00;99.90;;;;;;5054424;28;20463;-61
2024/02/22 01:15:13;;;;;;;2.90;2.57;;;8.00;99.90;;;;;;5054884;27;20490;-61
2024/02/22 01:17:41;;;;;;;3.30;2.90;;;8.00;99.90;;;;;;5054953;28;20528;-61
2024/02/22 01:20:10;;;;;;;4.30;2.80;;;8.00;99.90;;;;;;5054850;28;20454;-60
2024/02/22 01:22:39;;;;;;;3.27;2.20;;;8.10;99.90;;;;;;5054700;27;20462;-60
2024/02/22 01:25:08;;;;;;;2.80;2.50;;;8.00;99.90;;;;;;5054497;28;20545;-61
2024/02/22 01:27:37;;;;;;;2.97;2.40;;;8.10;99.90;;;;;;5054383;28;20466;-61
2024/02/22 01:30:05;;;;;;;3.30;2.40;;;8.10;99.90;;;;;;5054745;28;20464;-61
2024/02/22 01:32:33;;;;;;;4.10;2.57;;;8.10;99.90;;;;;;5053474;28;20509;-61
2024/02/22 01:35:00;;;;;;;2.70;1.93;;;8.10;99.90;;;;;;5054461;28;20489;-61
2024/02/22 01:37:28;;;;;;;3.23;2.33;;;8.20;99.90;;;;;;5053868;28;20466;-61
2024/02/22 01:39:55;;;;;;;6.60;2.47;;;8.20;99.90;;;;;;5054262;28;20494;-61
2024/02/22 01:42:23;;;;;;;3.33;2.77;;;8.20;99.90;;;;;;5054052;28;20821;-61
2024/02/22 01:44:52;;;;;;;2.60;1.90;;;8.20;99.90;;;;;;5054296;28;20473;-61
2024/02/22 01:47:19;;;;;;;4.03;2.47;;;8.20;99.90;;;;;;5054443;27;20866;-61
2024/02/22 01:49:47;;;;;;;2.70;2.20;;;8.20;99.90;;;;;;5054374;28;20561;-61
2024/02/22 01:52:14;;;;;;;2.70;2.40;;;8.20;99.90;;;;;;5054476;28;20459;-61
2024/02/22 01:54:41;;;;;;;3.07;2.20;;;8.20;99.90;;;;;;5054066;28;20514;-62
2024/02/22 01:57:09;;;;;;;3.17;2.20;;;8.20;99.90;;;;;;5053853;28;20553;-61
2024/02/22 01:59:36;;;;;;;2.40;1.87;;;8.20;99.90;;;;;;5054383;27;20458;-62
2024/02/22 02:02:05;;;;;;;2.87;2.37;;;8.30;99.90;;;;;;5054345;27;20515;-61
2024/02/22 02:04:33;;;;;;;3.20;2.67;;;8.30;99.90;;;;;;5053814;28;20469;-62
2024/02/22 02:07:00;;;;;;;2.73;2.40;;;8.30;99.90;;;;;;5053999;27;20525;-62
2024/02/22 02:09:28;;;;;;;3.57;2.80;;;8.30;99.90;;;;;;5054086;28;20458;-61
2024/02/22 02:11:55;;;;;;;3.60;3.07;;;8.30;99.90;;;;;;5053935;28;20577;-62
2024/02/22 02:14:23;;;;;;;3.17;2.87;;;8.30;99.90;;;;;;5053773;27;20534;-61
2024/02/22 02:16:50;;;;;;;3.80;3.20;;;8.40;99.90;;;;;;5054111;27;20454;-60
2024/02/22 02:19:21;;;;;;;3.40;3.10;;;8.40;99.90;;;;;;5053722;28;20962;-61
2024/02/22 02:22:00;;;;;;;3.60;2.73;;;8.40;99.90;;;;;;5054031;27;20462;-61
2024/02/22 02:24:34;;;;;;;3.40;3.10;;;8.40;99.90;;;;;;5053574;28;20497;-61
2024/02/22 02:27:03;;;;;;;2.70;2.33;;;8.40;99.90;;;;;;5053738;28;20475;-61
2024/02/22 02:29:30;;;;;;;3.27;2.90;;;8.40;99.90;;;;;;5053820;28;20552;-61
2024/02/22 02:31:57;;;;;;;3.63;3.33;;;8.40;99.90;;;;;;5053718;28;20839;-60
2024/02/22 02:34:25;;;;;;;3.50;3.17;;;8.40;99.90;;;;;;5053215;28;20523;-61
2024/02/22 02:36:52;;;;;;;3.67;3.30;;;8.50;99.90;;;;;;5053426;28;20486;-61
2024/02/22 02:39:20;;;;;;;3.37;3.00;;;8.40;99.90;;;;;;5053677;28;20501;-61
2024/02/22 02:41:47;;;;;;;3.23;2.87;;;8.50;99.90;;;;;;5053877;28;20730;-60
2024/02/22 02:44:16;;;;;;;3.00;2.67;;;8.50;99.90;;;;;;5055246;27;20551;-61
2024/02/22 02:46:43;;;;;;;3.17;2.87;;;8.50;99.90;;;;;;5056500;28;20585;-61
2024/02/22 02:49:10;;;;;;;3.53;2.83;;;8.50;99.90;;;;;;5057273;27;20519;-61
2024/02/22 02:51:37;;;;;;;2.80;2.40;;;8.50;99.90;;;;;;5057089;27;20510;-61
2024/02/22 02:54:05;;;;;;;3.10;2.63;;;8.50;99.90;;;;;;5056273;28;20482;-61
2024/02/22 02:56:32;;;;;;;2.90;2.60;;;8.50;99.90;;;;;;5056640;28;20583;-61
2024/02/22 02:59:00;;;;;;;3.63;2.57;;;8.50;99.90;;;;;;5056960;27;20802;-61
2024/02/22 03:01:28;;;;;;;3.33;3.00;;;8.50;99.90;;;;;;5056633;28;20488;-61
2024/02/22 03:03:55;;;;;;;4.63;2.60;;;8.60;99.90;;;;;;5057104;28;20489;-62
2024/02/22 03:06:23;;;;;;;3.03;2.63;;;8.60;99.90;;;;;;5056567;28;20526;-61
2024/02/22 03:08:50;;;;;;;2.97;2.43;;;8.60;99.90;;;;;;5056586;27;20494;-61
2024/02/22 03:11:17;;;;;;;3.00;2.70;;;8.60;99.90;;;;;;5056657;28;20556;-61
2024/02/22 03:13:44;;;;;;;3.30;2.70;;;8.50;99.90;;;;;;5056677;27;20454;-62
2024/02/22 03:16:11;;;;;;;3.30;2.90;;;8.60;99.90;;;;;;5056468;28;20450;-61
2024/02/22 03:18:41;;;;;;;2.80;2.27;;;8.60;99.90;;;;;;5056469;28;20550;-61
2024/02/22 03:21:10;;;;;;;3.30;2.97;;;8.60;99.90;;;;;;5056373;28;20900;-61
2024/02/22 03:23:37;;;;;;;3.67;3.37;;;8.60;99.90;;;;;;5056690;28;20465;-62
2024/02/22 03:26:06;;;;;;;3.13;2.83;;;8.50;99.90;;;;;;5056281;27;20483;-61
2024/02/22 03:28:34;;;;;;;3.33;3.03;;;8.60;99.90;;;;;;5056238;28;20955;-62
2024/02/22 03:31:01;;;;;;;3.60;3.03;;;8.50;99.90;;;;;;5056185;27;20466;-61
2024/02/22 03:33:28;;;;;;;3.23;2.93;;;8.60;99.90;;;;;;5056700;27;20494;-61
2024/02/22 03:35:58;;;;;;;3.63;3.33;;;8.60;99.90;;;;;;5056050;28;20887;-61
2024/02/22 03:38:25;;;;;;;2.87;2.57;;;8.60;99.90;;;;;;5055827;27;20462;-61
2024/02/22 03:40:53;;;;;;;3.30;3.00;;;8.60;99.90;;;;;;5056002;28;20491;-61
2024/02/22 03:43:21;;;;;;;4.63;2.97;;;8.60;99.90;;;;;;5056119;27;20462;-61
2024/02/22 03:45:48;;;;;;;3.20;2.60;;;8.60;99.90;;;;;;5056063;28;20462;-60
2024/02/22 03:48:15;;;;;;;2.87;2.57;;;8.60;99.90;;;;;;5056390;28;20454;-61
2024/02/22 03:50:43;;;;;;;2.83;2.50;;;8.60;99.90;;;;;;5055600;28;20465;-61
2024/02/22 03:53:12;;;;;;;3.97;2.53;;;8.60;99.90;;;;;;5055592;28;20553;-62
2024/02/22 03:55:39;;;;;;;3.00;2.43;;;8.60;99.90;;;;;;5055017;28;20468;-62
2024/02/22 03:58:06;;;;;;;2.80;2.43;;;8.60;99.90;;;;;;5056134;27;20519;-62
2024/02/22 04:00:34;;;;;;;2.60;2.13;;;8.60;99.90;;;;;;5055634;28;20462;-61
2024/02/22 04:03:02;;;;;;;2.73;2.43;;;8.60;99.90;;;;;;5056187;28;20550;-62
2024/02/22 04:05:29;;;;;;;2.57;2.10;;;8.60;99.90;;;;;;5055760;28;20467;-61
2024/02/22 04:07:57;;;;;;;2.50;2.10;;;8.60;99.90;;;;;;5055316;28;20564;-61
2024/02/22 04:10:25;;;;;;;2.70;2.20;;;8.60;99.90;;;;;;5055715;28;20546;-61
2024/02/22 04:12:53;;;;;;;3.67;2.50;;;8.60;99.90;;;;;;5055819;27;20477;-61
2024/02/22 04:15:20;;;;;;;2.70;2.33;;;8.60;99.90;;;;;;5055719;28;20494;-61
2024/02/22 04:17:48;;;;;;;3.13;2.30;;;8.60;99.90;;;;;;5055558;28;20469;-61
2024/02/22 04:20:15;;;;;;;4.60;2.13;;;8.60;99.90;;;;;;5055875;28;20458;-62
2024/02/22 04:22:47;;;;;;;2.57;2.30;;;8.60;99.90;;;;;;5055099;28;20456;-62
2024/02/22 04:25:15;;;;;;;4.00;1.90;;;8.60;99.90;;;;;;5054836;28;20497;-61
2024/02/22 04:27:44;;;;;;;3.43;1.90;;;8.60;99.90;;;;;;5055515;28;20517;-62
2024/02/22 04:30:13;;;;;;;3.13;2.53;;;8.60;99.90;;;;;;5055425;28;20481;-61
2024/02/22 04:32:41;;;;;;;2.70;2.23;;;8.60;99.90;;;;;;5055354;27;20511;-61
2024/02/22 04:35:10;;;;;;;3.00;2.40;;;8.60;99.90;;;;;;5055454;27;20515;-61
2024/02/22 04:37:37;;;;;;;2.70;2.30;;;8.60;99.90;;;;;;5055145;27;20458;-62
2024/02/22 04:40:06;;;;;;;4.50;2.70;;;8.60;99.90;;;;;;5055217;28;20466;-61
2024/02/22 04:42:33;;;;;;;3.90;2.60;;;8.60;99.90;;;;;;5054806;28;20505;-61
2024/02/22 04:45:04;;;;;;;3.20;2.90;;;8.60;99.90;;;;;;5054825;28;20541;-62
2024/02/22 04:47:35;;;;;;;3.00;2.63;;;8.70;99.90;;;;;;5054568;28;20494;-62
2024/02/22 04:50:03;;;;;;;3.57;2.63;;;8.70;99.90;;;;;;5055333;28;20462;-62
2024/02/22 04:52:30;;;;;;;2.90;2.57;;;8.70;99.90;;;;;;5054681;28;20459;-63
2024/02/22 04:54:59;;;;;;;3.10;2.80;;;8.70;99.90;;;;;;5054571;28;20482;-62
2024/02/22 04:57:27;;;;;;;3.47;3.17;;;8.70;99.90;;;;;;5054964;28;20899;-62
2024/02/22 04:59:54;;;;;;;3.70;3.07;;;8.70;99.90;;;;;;5055114;28;20459;-62
2024/02/22 05:02:23;;;;;;;5.20;3.90;;;8.70;99.90;;;;;;5054251;28;20489;-62
2024/02/22 05:04:50;;;;;;;3.90;3.60;;;8.70;99.90;;;;;;5054740;28;20459;-61
2024/02/22 05:07:18;;;;;;;5.30;4.40;;;8.70;99.90;;;;;;5053335;28;21063;-61
2024/02/22 05:09:45;;;;;;;4.93;3.60;;;8.70;99.90;;;;;;5055122;28;20458;-61
2024/02/22 05:12:13;;;;;;;10.70;4.07;;;8.70;99.90;;;;;;5054316;28;20961;-61
2024/02/22 05:14:44;;;;;;;5.50;5.00;;;8.70;99.90;;;;;;5054957;28;20478;-61
2024/02/22 05:17:11;;;;;;;6.20;4.90;;;8.70;99.90;;;;;;5054249;28;20454;-61
2024/02/22 05:19:40;;;;;;;6.80;5.63;;;8.70;99.90;;;;;;5054759;28;20557;-61
2024/02/22 05:22:07;;;;;;;4.83;4.37;;;8.70;99.90;;;;;;5054572;28;20463;-61
2024/02/22 05:24:35;;;;;;;5.90;4.23;;;8.80;99.90;;;;;;5054178;28;20490;-61
2024/02/22 05:27:02;;;;;;;4.70;4.20;;;8.80;99.90;;;;;;5053852;28;20959;-61
2024/02/22 05:29:29;;;;;;;5.30;4.80;;;8.80;99.90;;;;;;5054321;28;20459;-62
2024/02/22 05:31:57;;;;;;;5.57;5.07;;;8.80;99.90;;;;;;5054462;28;20594;-61
2024/02/22 05:34:25;;;;;;;5.97;5.30;;;8.80;99.90;;;;;;5053841;28;20469;-60
2024/02/22 05:36:54;;;;;;;6.30;5.70;;;8.80;99.90;;;;;;5054092;28;20458;-61
2024/02/22 05:39:21;;;;;;;7.03;6.40;;;8.80;99.90;;;;;;5054304;27;20530;-62
2024/02/22 05:41:49;;;;;;;6.80;6.20;;;8.80;99.90;;;;;;5054573;28;20510;-62
2024/02/22 05:44:16;;;;;;;7.13;6.47;;;8.80;99.90;;;;;;5054535;27;20811;-62
2024/02/22 05:46:44;;;;;;;7.53;6.83;;;8.80;99.90;;;;;;5053766;27;20486;-62
2024/02/22 05:49:11;;;;;;;7.70;7.03;;;8.80;99.90;;;;;;5054240;28;20918;-61
2024/02/22 05:51:38;;;;;;;8.10;7.40;;;8.80;99.90;;;;;;5053302;28;20859;-62
2024/02/22 05:54:07;;;;;;;8.40;7.60;;;8.80;99.90;;;;;;5052531;27;20482;-62
2024/02/22 05:56:34;;;;;;;9.10;8.30;;;8.90;99.90;;;;;;5051983;28;20751;-62
2024/02/22 05:59:02;;;;;;;8.80;8.00;;;8.90;99.90;;;;;;5051621;28;20466;-63
2024/02/22 06:01:29;;;;;;;8.53;7.73;;;8.90;99.90;;;;;;5051413;28;20461;-62
2024/02/22 06:03:56;;;;;;;9.63;8.83;;;8.90;99.90;;;;;;5051254;28;20954;-62
2024/02/22 06:06:23;;;;;;;8.83;8.13;;;8.90;99.90;;;;;;5051511;28;20458;-63
2024/02/22 06:08:50;;;;;;;8.73;8.00;;;8.90;99.90;;;;;;5051282;28;20899;-63
2024/02/22 06:11:19;;;;;;;8.80;8.10;;;8.90;99.90;;;;;;5052704;28;20838;-63
2024/02/22 06:13:46;;;;;;;8.17;7.47;;;8.90;99.90;;;;;;5052848;28;20930;-63
2024/02/22 06:16:15;;;;;;;9.23;8.47;;;9.00;99.90;;;;;;5052944;27;20458;-64
2024/02/22 06:18:42;;;;;;;9.30;8.50;;;9.00;99.90;;;;;;5054134;28;20486;-63
2024/02/22 06:21:10;;;;;;;8.47;7.43;;;9.00;99.90;;;;;;5056986;28;20463;-63
2024/02/22 06:23:38;;;;;;;8.10;7.40;;;9.00;99.90;;;;;;5056709;28;20469;-63
2024/02/22 06:26:06;;;;;;;9.50;8.60;;;9.00;99.90;;;;;;5057213;28;20466;-64
2024/02/22 06:28:35;;;;;;;8.60;7.80;;;9.00;99.90;;;;;;5056776;28;21026;-64
2024/02/22 06:31:02;;;;;;;9.67;7.43;;;9.00;99.90;;;;;;5057195;28;20733;-63
2024/02/22 06:33:29;;;;;;;8.80;7.90;;;9.00;99.90;;;;;;5057155;27;20466;-64
2024/02/22 06:35:57;;;;;;;8.37;7.67;;;9.00;99.90;;;;;;5056993;28;20502;-64
2024/02/22 06:38:24;;;;;;;7.97;7.17;;;8.90;99.90;;;;;;5056656;28;20486;-67
2024/02/22 06:40:52;;;;;;;7.57;6.77;;;9.00;99.90;;;;;;5056431;28;20458;-66
2024/02/22 06:43:19;;;;;;;7.10;6.50;;;9.00;99.90;;;;;;5056961;28;20497;-66
2024/02/22 06:45:48;;;;;;;7.00;5.83;;;8.90;99.90;;;;;;5056654;28;20914;-65
2024/02/22 06:48:15;;;;;;;6.77;6.07;;;8.90;99.90;;;;;;5056771;28;20836;-65
2024/02/22 06:50:43;;;;;;;7.23;5.83;;;8.90;99.90;;;;;;5056519;28;20462;-65
2024/02/22 06:53:10;;;;;;;5.20;4.70;;;8.90;99.90;;;;;;5056084;28;20509;-66
2024/02/22 06:55:38;;;;;;;5.83;4.70;;;8.90;99.90;;;;;;5056653;28;20498;-66
2024/02/22 06:58:06;;;;;;;5.10;4.60;;;8.90;99.90;;;;;;5056945;27;20867;-65
2024/02/22 07:00:33;;;;;;;6.17;4.50;;;8.90;99.90;;;;;;5056085;28;20502;-66
2024/02/22 07:03:02;;;;;;;5.20;4.50;;;8.90;99.90;;;;;;5056532;27;20462;-65
2024/02/22 07:05:29;;;;;;;4.80;4.30;;;8.90;99.90;;;;;;5056384;28;20758;-66
2024/02/22 07:07:57;;;;;;;4.70;4.00;;;8.80;99.90;;;;;;5056811;28;20935;-66
2024/02/22 07:10:28;;;;;;;6.33;4.23;;;8.80;99.90;;;;;;5056296;28;20462;-67
2024/02/22 07:12:55;;;;;;;8.73;4.73;;;8.80;99.90;;;;;;5056554;27;20462;-67
2024/02/22 07:15:23;;;;;;;5.07;3.67;;;8.80;99.90;;;;;;5056405;28;20462;-67
2024/02/22 07:17:51;;;;;;;4.10;3.47;;;8.90;99.90;;;;;;5056227;28;20561;-68
2024/02/22 07:20:20;;;;;;;4.20;3.70;;;8.90;99.90;;;;;;5055753;28;20482;-68
2024/02/22 07:22:48;;;;;;;4.93;3.60;;;8.90;99.90;;;;;;5054963;27;20883;-67
2024/02/22 07:25:18;;;;;;;4.60;3.47;;;9.00;99.90;;;;;;5054643;27;20857;-68
2024/02/22 07:27:45;;;;;;;6.73;4.27;;;9.00;99.90;;;;;;5054356;28;20537;-68
2024/02/22 07:30:14;;;;;;;5.03;3.40;;;9.10;99.90;;;;;;5053833;27;20473;-68
2024/02/22 07:32:41;;;;;;;5.50;3.00;;;9.10;99.90;;;;;;5054125;28;20469;-68
2024/02/22 07:35:09;;;;;;;5.70;4.70;;;9.00;99.90;;;;;;5054512;27;20458;-69
2024/02/22 07:37:39;;;;;;;6.43;3.70;;;9.10;99.90;;;;;;5054950;28;20783;-68
2024/02/22 07:40:08;;;;;;;7.33;4.73;;;9.10;99.90;;;;;;5056075;28;20462;-70
2024/02/22 07:42:36;;;;;;;6.20;4.00;;;9.10;99.90;;;;;;5055755;28;20889;-70
2024/02/22 07:45:05;;;;;;;9.00;5.10;;;9.20;99.90;;;;;;5054598;28;20469;-69
2024/02/22 07:47:32;;;;;;;8.90;4.70;;;9.20;99.90;;;;;;5054548;28;20964;-70
2024/02/22 07:50:00;;;;;;;3.93;2.97;;;9.20;99.90;;;;;;5054574;28;20477;-69
2024/02/22 07:52:27;;;;;;;8.60;5.13;;;9.20;99.90;;;;;;5055355;28;20502;-71
2024/02/22 07:54:56;;;;;;;4.60;2.93;;;9.30;99.90;;;;;;5055202;28;20962;-69
2024/02/22 07:57:23;;;;;;;4.37;3.13;;;9.20;99.90;;;;;;5054287;28;20757;-69
2024/02/22 07:59:54;;;;;;;4.23;2.83;;;9.30;99.90;;;;;;5054226;28;20462;-70
2024/02/22 08:02:23;;;;;;;3.57;2.53;;;9.30;99.90;;;;;;5054226;28;20569;-70
2024/02/22 08:04:50;;;;;;;4.30;2.90;;;9.30;99.90;;;;;;5054096;28;20462;-69
2024/02/22 08:07:18;;;;;;;4.77;3.27;;;9.30;99.90;;;;;;5053621;28;20532;-69
2024/02/22 08:09:45;;;;;;;4.60;2.90;;;9.30;99.90;;;;;;5053737;28;20883;-69
2024/02/22 08:12:14;;;;;;;3.30;2.77;;;9.30;99.90;;;;;;5054663;28;20488;-68
2024/02/22 08:14:42;;;;;;;3.60;2.40;;;9.30;99.90;;;;;;5053152;28;20451;-66
2024/02/22 08:17:10;;;;;;;3.43;2.33;;;9.40;99.90;;;;;;5055139;28;20468;-67
2024/02/22 08:19:37;;;;;;;4.53;2.77;;;9.40;99.90;;;;;;5054321;28;20891;-67
2024/02/22 08:22:05;;;;;;;6.80;2.67;;;9.40;99.90;;;;;;5054321;28;20463;-66
2024/02/22 08:24:32;;;;;;;3.10;2.20;;;9.40;99.90;;;;;;5053400;28;20817;-66
2024/02/22 08:26:58;;;;;;;2.97;2.40;;;9.50;99.90;;;;;;5053624;28;20565;-67
2024/02/22 08:29:28;;;;;;;3.53;2.03;;;9.60;99.90;;;;;;5053953;28;20486;-67
2024/02/22 08:31:56;;;;;;;2.70;1.87;;;9.60;99.90;;;;;;5054728;28;20462;-67
2024/02/22 08:34:23;;;;;;;2.70;2.00;;;9.60;99.90;;;;;;5054962;28;20458;-67
2024/02/22 08:36:52;;;;;;;3.27;1.83;;;9.60;99.90;;;;;;5054459;28;20458;-67
2024/02/22 08:39:19;;;;;;;2.60;1.73;;;9.60;99.90;;;;;;5055035;28;20463;-66
2024/02/22 08:41:47;;;;;;;4.77;2.27;;;9.60;99.90;;;;;;5054853;28;20518;-67
2024/02/22 08:44:14;;;;;;;3.70;1.73;;;9.70;99.90;;;;;;5054039;28;20565;-67
2024/02/22 08:46:43;;;;;;;2.93;1.63;;;9.80;99.90;;;;;;5044879;28;20575;-67
2024/02/22 08:49:10;;;;;;;2.73;1.90;;;9.70;99.90;;;;;;5034533;28;20869;-68
2024/02/22 08:51:38;;;;;;;3.07;1.87;;;9.80;99.90;;;;;;5033610;28;20896;-68
2024/02/22 08:54:05;;;;;;;2.83;1.60;;;9.90;99.90;;;;;;5033056;28;20780;-68
2024/02/22 08:56:33;;;;;;;4.43;1.70;;;10.00;99.90;;;;;;5032631;28;20463;-68
2024/02/22 08:59:00;;;;;;;3.50;1.77;;;10.10;99.90;;;;;;5032638;28;20459;-68
2024/02/22 09:01:27;;;;;;;2.80;1.60;;;10.20;99.90;;;;;;5032489;28;20484;-68
2024/02/22 09:03:56;;;;;;;2.53;1.47;;;10.10;99.90;;;;;;5032526;28;20753;-68
2024/02/22 09:06:23;;;;;;;3.53;1.70;;;10.20;99.90;;;;;;5033194;28;20756;-69
2024/02/22 09:08:53;;;;;;;2.67;1.50;;;10.20;99.90;;;;;;5033072;28;20499;-69
2024/02/22 09:11:21;;;;;;;3.53;1.77;;;10.10;99.90;;;;;;5033778;28;20467;-70
2024/02/22 09:13:48;;;;;;;2.53;1.43;;;10.20;99.90;;;;;;5033635;28;20888;-71
2024/02/22 09:16:15;;;;;;;3.50;1.70;;;10.20;99.90;;;;;;5034521;28;20455;-70
2024/02/22 09:18:43;;;;;;;2.73;1.57;;;10.20;99.90;;;;;;5034707;28;20919;-70
2024/02/22 09:21:11;;;;;;;2.40;1.60;;;10.20;99.90;;;;;;5032478;28;20972;-70
2024/02/22 09:23:41;;;;;;;2.87;1.80;;;10.20;99.90;;;;;;5032697;28;20566;-70
2024/02/22 09:26:08;;;;;;;2.47;1.70;;;10.10;99.90;;;;;;5033022;28;20467;-71
2024/02/22 09:28:35;;;;;;;2.10;1.30;;;10.10;99.90;;;;;;5033433;28;20495;-70
2024/02/22 09:31:03;;;;;;;5.53;1.60;;;10.10;99.90;;;;;;5034062;28;20873;-70
2024/02/22 09:33:30;;;;;;;2.60;1.50;;;10.10;99.90;;;;;;5033062;28;20459;-70
2024/02/22 09:35:58;;;;;;;2.60;1.70;;;10.10;99.90;;;;;;5032934;28;20471;-71
2024/02/22 09:38:26;;;;;;;2.30;1.33;;;10.00;99.90;;;;;;5032263;28;20459;-70
2024/02/22 09:40:55;;;;;;;3.53;1.50;;;10.00;99.90;;;;;;5032461;28;20516;-70
2024/02/22 09:43:22;;;;;;;2.80;1.40;;;9.90;99.90;;;;;;5032346;28;20889;-70
2024/02/22 09:45:50;;;;;;;3.57;1.80;;;9.90;99.90;;;;;;5032928;28;20674;-71
2024/02/22 09:48:18;;;;;;;2.43;1.50;;;10.00;99.90;;;;;;5033482;28;20487;-70
2024/02/22 09:50:45;;;;;;;3.43;2.00;;;10.00;99.90;;;;;;5033804;28;20459;-71
2024/02/22 09:53:13;;;;;;;2.50;1.90;;;10.10;99.90;;;;;;5032903;28;20940;-71
2024/02/22 09:55:46;;;;;;;6.07;2.17;;;10.00;99.90;;;;;;5048627;28;20474;-71
2024/02/22 09:58:15;;;;;;;2.50;1.50;;;10.00;99.90;;;;;;5053861;28;20461;-70
2024/02/22 10:00:42;;;;;;;2.50;1.47;;;10.10;99.90;;;;;;5052850;28;20833;-71
2024/02/22 10:03:10;;;;;;;2.80;1.70;;;10.10;99.90;;;;;;5053305;28;20488;-71
2024/02/22 10:05:37;;;;;;;2.20;1.40;;;10.10;99.90;;;;;;5054752;28;20458;-70
2024/02/22 10:08:13;;;;;;;2.20;1.53;;;10.10;99.90;;;;;;5053363;28;20494;-70
2024/02/22 10:10:42;;;;;;;2.43;1.63;;;10.10;99.90;;;;;;5053844;28;20518;-71
2024/02/22 10:13:20;;;;;;;3.10;1.63;;;10.20;99.90;;;;;;5054133;28;20507;-71
2024/02/22 10:15:48;;;;;;;3.80;1.93;;;10.30;99.90;;;;;;5054481;28;20450;-71
2024/02/22 10:18:25;;;;;;;3.13;1.70;;;10.40;99.90;;;;;;5054608;28;20556;-70
2024/02/22 10:20:52;;;;;;;2.30;1.50;;;10.50;99.90;;;;;;5053454;28;20472;-70
2024/02/22 10:23:20;;;;;;;2.20;1.40;;;10.70;99.90;;;;;;5053273;28;20557;-70
2024/02/22 10:25:49;;;;;;;4.30;1.90;;;10.70;99.90;;;;;;5050643;28;20678;-70
2024/02/22 10:28:17;;;;;;;2.30;1.37;;;10.80;99.90;;;;;;5051036;28;20791;-70
2024/02/22 10:30:45;;;;;;;2.27;1.47;;;10.70;99.90;;;;;;5052652;28;20466;-70
2024/02/22 10:33:12;;;;;;;2.63;1.63;;;10.70;99.90;;;;;;5050975;28;20803;-71
2024/02/22 10:35:43;;;;;;;2.60;1.47;;;10.70;99.90;;;;;;5050779;28;20534;-66
2024/02/22 10:38:11;;;;;;;3.50;1.87;;;10.80;99.90;;;;;;5050765;28;20814;-67
2024/02/22 10:40:39;;;;;;;2.83;1.80;;;11.00;99.90;;;;;;5049817;28;20490;-68
2024/02/22 10:43:09;;;;;;;2.40;1.70;;;11.00;99.90;;;;;;5049896;28;20478;-68
2024/02/22 10:45:36;;;;;;;3.43;1.70;;;11.00;99.90;;;;;;5052154;28;20464;-69
2024/02/22 10:48:07;;;;;;;2.70;1.70;;;11.00;99.90;;;;;;5052620;28;20490;-69
2024/02/22 10:50:36;;;;;;;2.40;1.70;;;11.10;99.90;;;;;;5053457;28;20899;-71
2024/02/22 10:53:05;;;;;;;4.00;1.47;;;11.20;99.90;;;;;;5053001;28;20494;-71
2024/02/22 10:55:36;;;;;;;2.40;1.50;;;11.30;99.90;;;;;;5053510;28;20489;-73
2024/02/22 10:58:05;;;;;;;2.50;1.63;;;11.30;99.90;;;;;;5054237;28;20458;-72
2024/02/22 11:00:36;;;;;;;3.13;1.40;;;11.30;99.90;;;;;;5053060;28;20458;-71
2024/02/22 11:03:04;;;;;;;3.93;1.90;;;11.40;99.90;;;;;;5053465;28;20480;-71
2024/02/22 11:05:39;;;;;;;2.40;1.70;;;11.30;99.90;;;;;;5054610;28;20470;-70
2024/02/22 11:08:07;;;;;;;2.60;1.73;;;11.40;99.90;;;;;;5057057;28;20497;-71
2024/02/22 11:10:34;;;;;;;3.10;1.73;;;11.40;99.90;;;;;;5057539;28;20458;-71
2024/02/22 11:13:05;;;;;;;2.40;1.60;;;11.40;99.90;;;;;;5056630;28;20924;-70
2024/02/22 11:15:35;;;;;;;3.17;1.73;;;11.40;99.90;;;;;;5057091;28;20883;-70
2024/02/22 11:18:03;;;;;;;3.37;2.17;;;11.50;99.90;;;;;;5057269;28;20466;-70
2024/02/22 11:20:33;;;;;;;2.70;1.73;;;11.60;99.90;;;;;;5056438;28;20462;-69
2024/02/22 11:23:11;;;;;;;2.83;2.00;;;11.60;99.90;;;;;;5056994;28;20522;-69
2024/02/22 11:25:39;;;;;;;4.30;3.00;;;11.60;99.90;;;;;;5056425;28;20463;-69
2024/02/22 11:28:06;;;;;;;2.50;1.90;;;11.80;99.90;;;;;;5057071;28;20462;-70
2024/02/22 11:30:36;;;;;;;3.00;1.80;;;11.70;99.90;;;;;;5057011;28;20459;-69
2024/02/22 11:33:03;;;;;;;3.30;1.60;;;11.80;99.90;;;;;;5057617;28;20464;-69
2024/02/22 11:35:31;;;;;;;2.63;1.70;;;11.70;99.90;;;;;;5056425;28;20511;-68
2024/02/22 11:37:59;;;;;;;2.40;1.83;;;11.60;99.90;;;;;;5057055;28;20462;-69
2024/02/22 11:40:30;;;;;;;6.17;4.67;;;11.50;99.90;;;;;;5056231;28;20455;-69
2024/02/22 11:42:58;;;;;;;6.33;4.93;;;11.50;99.90;;;;;;5056657;28;20462;-68
2024/02/22 11:45:26;;;;;;;5.03;4.10;;;11.40;99.90;;;;;;5056614;28;20461;-67
2024/02/22 11:47:55;;;;;;;4.20;3.23;;;11.50;99.90;;;;;;5056879;28;20458;-68
2024/02/22 11:50:23;;;;;;;4.70;2.27;;;11.50;99.90;;;;;;5056618;28;20991;-69
2024/02/22 11:52:51;;;;;;;4.83;3.03;;;11.50;99.90;;;;;;5056738;28;20565;-69
2024/02/22 11:55:18;;;;;;;3.17;2.07;;;11.60;99.90;;;;;;5055660;28;20457;-68
2024/02/22 11:57:46;;;;;;;3.03;2.30;;;11.80;99.90;;;;;;5048451;27;20478;-70
2024/02/22 12:00:14;;;;;;;3.10;1.73;;;12.00;99.90;;;;;;5088566;27;20446;-67
2024/02/22 12:02:43;;;;;;;4.27;2.67;;;12.20;99.90;;;;;;5098248;27;20753;-68
2024/02/22 12:05:17;;;;;;;3.20;2.03;;;12.40;99.90;;;;;;5076450;27;20757;-68
2024/02/22 12:07:45;;;;;;;3.73;2.70;;;12.50;99.90;;;;;;5036850;28;20511;-67
2024/02/22 12:10:13;;;;;;;3.47;2.33;;;12.60;99.90;;;;;;5036735;28;20495;-63
2024/02/22 12:12:41;;;;;;;4.00;1.70;;;12.50;99.90;;;;;;5035694;28;20520;-62
2024/02/22 12:15:09;;;;;;;2.73;1.90;;;12.60;99.90;;;;;;5035295;28;20460;-62
2024/02/22 12:17:38;;;;;;;3.60;1.83;;;12.50;99.90;;;;;;5035456;28;20469;-63
2024/02/22 12:20:06;;;;;;;3.00;2.00;;;12.50;99.90;;;;;;5035674;28;20458;-63
2024/02/22 12:22:36;;;;;;;5.43;2.70;;;12.60;99.90;;;;;;5035151;28;20463;-63
2024/02/22 12:25:04;;;;;;;3.47;2.23;;;12.50;99.90;;;;;;5035410;28;20463;-63
2024/02/22 12:27:33;;;;;;;3.90;1.90;;;12.60;99.90;;;;;;5044107;28;20832;-64
2024/02/22 12:30:02;;;;;;;3.37;2.43;;;12.60;99.90;;;;;;5053813;28;20530;-63
2024/02/22 12:32:30;;;;;;;2.63;1.70;;;12.60;99.90;;;;;;5053827;28;20887;-63
2024/02/22 12:34:57;;;;;;;2.40;1.53;;;12.50;99.90;;;;;;5053741;28;21000;-63
2024/02/22 12:37:26;;;;;;;2.17;1.37;;;12.40;99.90;;;;;;5053691;28;20950;-67
2024/02/22 12:39:55;;;;;;;2.60;1.70;;;12.30;99.90;;;;;;5053788;28;20541;-63
2024/02/22 12:42:23;;;;;;;4.87;1.67;;;12.20;99.90;;;;;;5053246;28;20902;-63
2024/02/22 12:44:51;;;;;;;7.70;1.77;;;12.20;99.90;;;;;;5052740;27;20563;-64
2024/02/22 12:47:18;;;;;;;2.80;1.90;;;12.10;99.90;;;;;;5054284;28;20497;-62
2024/02/22 12:49:46;;;;;;;3.20;1.53;;;12.00;99.90;;;;;;5054883;28;20534;-63
2024/02/22 12:52:13;;;;;;;2.93;1.40;;;12.00;99.90;;;;;;5055229;28;20465;-65
2024/02/22 12:54:41;;;;;;;2.40;1.67;;;12.00;99.90;;;;;;5054631;28;20584;-66
2024/02/22 12:57:11;;;;;;;2.27;1.27;;;12.00;99.90;;;;;;5054906;28;20469;-68